createdAt,value
2022-12-08T00:06:13.229Z,100113.78
2022-12-08T00:13:01.531Z,100114.59
2022-12-08T00:19:47.882Z,100094.22
2022-12-08T00:26:34.225Z,100096.66
2022-12-08T00:33:22.385Z,100074.91
2022-12-08T00:40:10.444Z,100073.53
2022-12-08T00:46:56.217Z,100077.84
2022-12-08T00:53:44.462Z,100062.31
2022-12-08T01:00:29.924Z,100072.97
2022-12-08T01:07:15.350Z,100053.66
2022-12-08T01:14:03.456Z,100050.44
2022-12-08T01:20:48.907Z,100064.63
2022-12-08T01:27:34.417Z,100061.91
2022-12-08T01:34:22.488Z,100058.34
2022-12-08T01:41:07.986Z,100059.44
2022-12-08T01:47:57.417Z,100045.03
2022-12-08T01:54:50.425Z,100036.56
2022-12-08T02:01:36.226Z,100033.28
2022-12-08T02:08:21.986Z,100024.28
2022-12-08T02:15:11.692Z,100009.34
2022-12-08T02:22:03.905Z,100021.59
2022-12-08T02:29:35.446Z,99992.78
2022-12-08T02:36:29.692Z,100016.22
2022-12-08T02:43:21.363Z,99989.31
2022-12-08T02:50:07.916Z,99999.66
2022-12-08T02:57:25.480Z,99985.59
2022-12-08T03:04:18.094Z,99996.13
2022-12-08T03:11:10.718Z,99990.72
2022-12-08T03:18:02.436Z,99974.41
2022-12-08T03:24:49.890Z,99994.25
2022-12-08T03:31:42.025Z,99978.19
2022-12-08T03:38:30.167Z,99959.13
2022-12-08T04:06:00.736Z,99934.59
2022-12-08T04:12:46.532Z,99938.44
2022-12-08T04:19:32.223Z,99938.94
2022-12-08T04:26:20.859Z,99917.16
2022-12-08T04:33:06.500Z,99925.31
2022-12-08T04:39:51.937Z,99916.59
2022-12-08T04:46:43.333Z,99923.34
2022-12-08T04:53:29.574Z,99914.91
2022-12-08T05:00:16.427Z,99908.88
2022-12-08T05:07:04.684Z,99918.09
2022-12-08T05:13:50.122Z,99907.28
2022-12-08T05:20:35.608Z,99902.66
2022-12-08T05:27:23.909Z,99912.97
2022-12-08T05:34:09.589Z,99910.00
2022-12-08T05:40:54.998Z,99905.13
2022-12-08T05:47:43.120Z,99881.28
2022-12-08T05:54:28.543Z,99894.06
2022-12-08T06:01:27.501Z,99887.84
2022-12-08T06:08:16.895Z,99887.84
2022-12-08T06:15:02.441Z,99909.88
2022-12-08T06:21:48.077Z,99909.06
2022-12-08T06:28:37.369Z,99897.19
2022-12-08T06:35:22.749Z,99900.97
2022-12-08T06:42:20.843Z,99907.25
2022-12-08T06:49:08.875Z,99899.91
2022-12-08T06:55:59.607Z,99882.53
2022-12-08T07:02:46.105Z,99889.59
2022-12-08T07:09:34.217Z,99884.19
2022-12-08T07:16:19.863Z,99896.69
2022-12-08T07:23:07.500Z,99890.19
2022-12-08T07:29:55.947Z,99886.09
2022-12-08T07:36:41.478Z,99902.13
2022-12-08T07:43:27.684Z,99896.94
2022-12-08T07:50:16.203Z,99895.88
2022-12-08T07:57:03.721Z,99909.47
2022-12-08T08:03:49.216Z,99871.41
2022-12-08T08:10:37.280Z,99902.88
2022-12-08T08:17:22.930Z,99904.50
2022-12-08T08:24:09.395Z,99872.72
2022-12-08T08:30:57.545Z,99897.69
2022-12-08T08:37:48.335Z,99893.66
2022-12-08T08:44:34.573Z,99911.84
2022-12-08T08:51:22.716Z,99889.59
2022-12-08T08:58:08.116Z,99898.78
2022-12-08T09:04:53.661Z,99898.25
2022-12-08T09:11:41.848Z,99841.22
2022-12-08T09:18:27.302Z,99887.03
2022-12-08T09:25:13.578Z,99890.53
2022-12-08T09:32:01.601Z,99889.44
2022-12-08T09:38:48.004Z,99815.06
2022-12-08T09:45:37.580Z,99861.41
2022-12-08T09:52:33.647Z,99856.78
2022-12-08T09:59:28.098Z,99853.75
2022-12-08T10:06:24.763Z,99855.00
2022-12-08T10:13:23.710Z,99850.56
2022-12-08T10:20:19.019Z,99586.06
2022-12-08T10:27:06.143Z,99844.44
2022-12-08T10:33:59.223Z,99833.69
2022-12-08T10:40:47.330Z,99837.34
2022-12-08T10:47:33.882Z,99811.81
2022-12-08T10:54:37.342Z,99793.47
2022-12-08T11:01:28.465Z,99787.16
2022-12-08T11:08:15.321Z,99808.72
2022-12-08T11:15:06.280Z,99794.53
2022-12-08T11:21:51.928Z,99789.50
2022-12-08T11:28:37.592Z,99787.50
2022-12-08T11:35:31.877Z,99773.28
2022-12-08T11:42:22.797Z,99771.03
2022-12-08T11:49:15.263Z,99763.88
2022-12-08T11:56:11.464Z,99764.09
2022-12-08T12:03:04.953Z,99745.53
2022-12-08T12:10:28.291Z,99746.47
2022-12-08T12:17:36.735Z,99723.09
2022-12-08T12:24:29.448Z,99716.13
2022-12-08T12:31:22.376Z,99658.47
2022-12-08T12:38:34.768Z,99721.59
2022-12-08T12:45:33.031Z,99707.94
2022-12-08T12:52:57.098Z,99720.25
2022-12-08T13:00:05.206Z,99674.06
2022-12-08T13:06:53.619Z,99699.44
2022-12-08T13:13:40.810Z,99687.44
2022-12-08T13:20:29.305Z,99688.66
2022-12-08T13:27:36.938Z,99676.53
2022-12-08T13:34:41.328Z,99682.53
2022-12-08T13:41:39.999Z,99668.25
2022-12-08T14:03:00.448Z,99669.31
2022-12-08T14:09:47.729Z,99685.97
2022-12-08T14:16:40.635Z,99678.84
2022-12-08T14:23:28.640Z,99662.25
2022-12-08T14:30:24.326Z,99684.84
2022-12-08T14:37:16.110Z,99676.75
2022-12-08T14:44:05.758Z,99658.88
2022-12-08T14:51:07.637Z,99688.34
2022-12-08T14:57:53.204Z,99675.97
2022-12-08T15:04:43.946Z,99680.63
2022-12-08T15:11:38.449Z,99697.75
2022-12-08T15:18:34.075Z,99683.06
2022-12-08T15:25:22.384Z,99680.06
2022-12-08T15:32:12.330Z,99694.44
2022-12-08T15:38:57.823Z,99695.47
2022-12-08T15:45:57.810Z,99683.75
2022-12-08T15:52:44.241Z,99704.69
2022-12-08T15:59:29.685Z,99694.09
2022-12-08T16:13:56.689Z,99707.41
2022-12-08T16:21:07.474Z,99690.47
2022-12-08T16:28:08.255Z,99684.13
2022-12-08T16:34:58.936Z,99676.81
2022-12-08T16:41:57.033Z,99671.56
2022-12-08T16:48:45.348Z,99664.72
2022-12-08T16:55:31.359Z,99675.41
2022-12-08T17:02:16.790Z,99668.28
2022-12-08T17:09:04.976Z,99685.00
2022-12-08T17:15:50.423Z,99682.50
2022-12-08T17:22:36.994Z,99651.16
2022-12-08T17:29:25.244Z,99659.59
2022-12-08T17:36:15.357Z,99646.97
2022-12-08T17:43:00.835Z,99659.50
2022-12-08T17:49:49.114Z,99657.69
2022-12-08T17:56:34.573Z,99666.69
2022-12-08T18:03:20.799Z,99658.28
2022-12-08T18:10:11.237Z,99646.91
2022-12-08T18:16:57.069Z,99671.56
2022-12-08T18:23:44.685Z,99651.31
2022-12-08T18:30:32.926Z,99662.41
2022-12-08T18:37:18.636Z,99672.28
2022-12-08T18:44:04.707Z,99656.25
2022-12-08T18:50:52.755Z,99662.50
2022-12-08T18:57:39.249Z,99669.31
2022-12-08T19:04:28.962Z,99662.66
2022-12-08T19:11:24.500Z,99650.72
2022-12-08T19:18:09.910Z,99658.81
2022-12-08T19:24:55.421Z,99659.22
2022-12-08T19:31:43.599Z,99671.63
2022-12-08T19:38:29.021Z,99664.38
2022-12-08T19:45:18.482Z,99641.94
2022-12-08T19:52:06.728Z,99651.81
2022-12-08T19:58:52.208Z,99668.50
2022-12-08T20:05:39.973Z,99625.19
2022-12-08T20:12:27.999Z,99652.72
2022-12-08T20:19:13.638Z,99652.34
2022-12-08T20:25:59.345Z,99638.53
2022-12-08T20:32:47.641Z,99627.34
2022-12-08T20:39:33.123Z,99650.34
2022-12-08T20:46:22.401Z,99650.03
2022-12-08T20:53:11.020Z,99665.53
2022-12-08T20:59:56.655Z,99661.31
2022-12-08T21:06:42.483Z,99641.66
2022-12-08T21:13:30.828Z,99653.13
2022-12-08T21:20:16.431Z,99635.59
2022-12-08T21:27:02.257Z,99647.22
2022-12-08T21:33:50.766Z,99651.56
2022-12-08T21:40:36.399Z,99646.19
2022-12-08T21:47:22.051Z,99642.97
2022-12-08T21:54:14.982Z,99645.09
2022-12-08T22:01:09.428Z,99644.03
2022-12-08T22:07:55.100Z,99653.06
2022-12-08T22:14:43.448Z,99646.94
2022-12-08T22:21:29.002Z,99655.22
2022-12-08T22:28:14.804Z,99648.03
2022-12-08T22:35:02.809Z,99632.38
2022-12-08T22:41:48.188Z,99649.00
2022-12-08T22:48:33.790Z,99640.75
2022-12-08T22:55:21.786Z,99626.78
2022-12-08T23:02:07.477Z,99625.88
2022-12-08T23:08:53.373Z,99631.88
2022-12-08T23:15:42.078Z,99628.41
2022-12-08T23:22:27.550Z,99618.53
2022-12-08T23:29:12.984Z,99621.56
2022-12-08T23:36:04.076Z,99600.78
2022-12-08T23:42:49.687Z,99603.94
2022-12-08T23:49:35.439Z,99590.28
2022-12-08T23:56:28.647Z,99592.09
